createdAt,value
2023-03-22T00:00:15.767Z,6.84
2023-03-22T00:05:34.904Z,6.67
2023-03-22T00:10:54.541Z,6.47
2023-03-22T00:16:14.357Z,6.23
2023-03-22T00:21:33.311Z,6.06
2023-03-22T00:26:52.271Z,6.03
2023-03-22T00:32:11.578Z,6.1
2023-03-22T00:37:38.838Z,6.36
2023-03-22T00:42:50.134Z,6.58
2023-03-22T00:48:16.957Z,6.64
2023-03-22T00:53:27.724Z,6.85
2023-03-22T00:58:46.710Z,6.85
2023-03-22T01:04:05.513Z,7.02
2023-03-22T01:09:24.689Z,7.08
2023-03-22T01:14:43.729Z,7.3
2023-03-22T01:20:02.869Z,7.59
2023-03-22T01:25:22.242Z,7.93
2023-03-22T01:30:49.414Z,7.67
2023-03-22T01:36:00.902Z,7.71
2023-03-22T01:41:20.066Z,7.21
2023-03-22T01:46:39.741Z,6.85
2023-03-22T01:51:59.133Z,6.91
2023-03-22T01:57:18.201Z,7.42
2023-03-22T02:02:37.904Z,7.81
2023-03-22T02:07:57.584Z,8.02
2023-03-22T02:13:16.466Z,8.1
2023-03-22T02:18:35.341Z,8.01
2023-03-22T02:24:03.964Z,7.9
2023-03-22T02:29:14.029Z,7.93
2023-03-22T02:34:33.455Z,7.87
2023-03-22T02:39:52.780Z,7.79
2023-03-22T02:45:11.636Z,7.87
2023-03-22T02:50:30.507Z,8.01
2023-03-22T02:55:49.835Z,8.14
2023-03-22T03:01:08.919Z,7.69
2023-03-22T03:06:28.510Z,7.4
2023-03-22T03:11:47.471Z,7.12
2023-03-22T03:17:06.481Z,6.58
2023-03-22T03:22:26.069Z,6.47
2023-03-22T03:27:45.996Z,6.43
2023-03-22T03:33:05.661Z,6.5
2023-03-22T03:38:25.089Z,6.58
2023-03-22T03:43:44.692Z,6.84
2023-03-22T03:49:04.305Z,6.88
2023-03-22T03:54:22.537Z,6.84
2023-03-22T03:59:42.148Z,6.85
2023-03-22T04:05:01.627Z,7.08
2023-03-22T04:10:20.619Z,7.16
2023-03-22T04:15:40.215Z,7.11
2023-03-22T04:20:59.466Z,6.74
2023-03-22T04:26:18.553Z,6.37
2023-03-22T04:31:38.056Z,6.12
2023-03-22T04:36:57.148Z,5.99
2023-03-22T04:42:16.353Z,6.22
2023-03-22T04:47:36.004Z,6.46
2023-03-22T04:52:55.562Z,6.49
2023-03-22T04:53:20.609Z,6.67
2023-03-22T04:58:39.389Z,6.61
2023-03-22T05:03:58.799Z,6.57
2023-03-22T05:09:17.828Z,6.63
2023-03-22T05:14:37.575Z,6.47
2023-03-22T05:19:56.363Z,6.22
2023-03-22T05:25:15.362Z,6.09
2023-03-22T05:30:34.427Z,5.71
2023-03-22T05:35:53.903Z,5.47
2023-03-22T05:41:12.806Z,5.61
2023-03-22T05:46:32.259Z,5.95
2023-03-22T05:51:51.925Z,6.43
2023-03-22T05:57:12.002Z,6.44
2023-03-22T06:02:29.895Z,6.32
2023-03-22T06:07:49.522Z,6.26
2023-03-22T06:13:08.942Z,6.43
2023-03-22T06:18:28.096Z,6.39
2023-03-22T06:23:46.889Z,6.41
2023-03-22T06:29:06.334Z,6.68
2023-03-22T06:34:25.781Z,6.76
2023-03-22T06:39:45.048Z,6.83
2023-03-22T06:45:03.949Z,6.83
2023-03-22T06:50:22.734Z,7.02
2023-03-22T06:55:42.275Z,7.62
2023-03-22T07:01:00.985Z,8.14
2023-03-22T07:06:20.029Z,8.76
2023-03-22T07:11:38.956Z,8.8
2023-03-22T07:16:58.073Z,8.75
2023-03-22T07:22:16.909Z,9.16
2023-03-22T07:27:36.212Z,9.31
2023-03-22T07:32:55.706Z,10.24
2023-03-22T07:38:14.574Z,11.22
2023-03-22T07:43:41.519Z,11.63
2023-03-22T07:48:52.666Z,12.32
2023-03-22T07:54:13.990Z,13.06
2023-03-22T07:59:30.227Z,13.23
2023-03-22T08:04:51.563Z,13.54
2023-03-22T08:10:08.333Z,13.4
2023-03-22T08:15:27.547Z,13.69
2023-03-22T08:20:46.771Z,13.68
2023-03-22T08:26:06.270Z,13.57
2023-03-22T08:31:25.388Z,13.61
2023-03-22T08:36:44.712Z,13.69
2023-03-22T08:42:04.319Z,13.77
2023-03-22T08:47:23.760Z,13.83
2023-03-22T08:52:42.945Z,13.79
2023-03-22T08:58:02.252Z,14.04
2023-03-22T09:03:21.448Z,14.59
2023-03-22T09:08:41.096Z,14.87
2023-03-22T09:14:00.528Z,14.71
2023-03-22T09:19:20.195Z,14.63
2023-03-22T09:24:39.061Z,14.13
2023-03-22T09:29:58.466Z,13.69
2023-03-22T09:35:17.227Z,13.57
2023-03-22T09:40:36.301Z,13.77
2023-03-22T09:45:55.390Z,14.02
2023-03-22T09:51:14.836Z,13.89
2023-03-22T09:56:34.488Z,14.04
2023-03-22T10:01:53.819Z,14.87
2023-03-22T10:07:12.405Z,14.71
2023-03-22T10:12:32.019Z,14.28
2023-03-22T10:17:50.722Z,14.36
2023-03-22T10:23:09.494Z,14.63
2023-03-22T10:28:28.640Z,14.53
2023-03-22T10:33:47.450Z,15.05
2023-03-22T10:39:07.148Z,15.49
2023-03-22T10:44:26.311Z,15.11
2023-03-22T10:49:45.540Z,15.07
2023-03-22T10:55:04.889Z,15.27
2023-03-22T11:00:24.475Z,15.34
2023-03-22T11:05:43.218Z,15.42
2023-03-22T11:11:01.955Z,15.65
2023-03-22T11:16:20.790Z,15.5
2023-03-22T11:21:40.240Z,15.76
2023-03-22T11:26:59.407Z,16
2023-03-22T11:32:18.919Z,16.37
2023-03-22T11:37:38.211Z,16.29
2023-03-22T11:42:57.774Z,16.07
2023-03-22T11:48:16.911Z,16.07
2023-03-22T11:53:35.715Z,15.79
2023-03-22T11:58:54.972Z,15.94
2023-03-22T12:04:13.708Z,16.41
2023-03-22T12:09:32.847Z,16.08
2023-03-22T12:14:52.408Z,16.03
2023-03-22T12:20:11.802Z,16.2
2023-03-22T12:25:31.187Z,16.48
2023-03-22T12:30:50.745Z,16.57
2023-03-22T12:36:09.546Z,16.41
2023-03-22T12:41:28.875Z,16.54
2023-03-22T12:46:48.147Z,16.85
2023-03-22T12:52:07.672Z,16.78
2023-03-22T12:57:27.347Z,16.54
2023-03-22T13:02:46.668Z,16.71
2023-03-22T13:08:05.395Z,16.51
2023-03-22T13:13:25.071Z,16.37
2023-03-22T13:18:44.514Z,16.27
2023-03-22T13:24:04.040Z,16.31
2023-03-22T13:29:23.520Z,16.99
2023-03-22T13:34:43.128Z,17.02
2023-03-22T13:40:02.664Z,16.69
2023-03-22T13:45:21.416Z,16.64
2023-03-22T13:50:41.079Z,16.65
2023-03-22T13:55:59.628Z,17.12
2023-03-22T14:01:18.951Z,17.2
2023-03-22T14:06:38.582Z,17.09
2023-03-22T14:11:58.019Z,17.26
2023-03-22T14:17:16.792Z,17.5
2023-03-22T14:54:30.259Z,17.33
2023-03-22T15:05:09.320Z,17.19
2023-03-22T15:10:28.629Z,17.23
2023-03-22T15:15:48.104Z,17.44
2023-03-22T15:21:07.224Z,17.7
2023-03-22T15:31:45.149Z,18.12
2023-03-22T15:37:04.567Z,18.16
2023-03-22T15:47:42.633Z,18.01
2023-03-22T15:53:01.315Z,17.7
2023-03-22T16:03:40.929Z,17.19
2023-03-22T16:08:58.874Z,17.16
2023-03-22T16:14:17.578Z,17.27
2023-03-22T16:19:36.951Z,17.21
2023-03-22T16:30:15.800Z,17.16
2023-03-22T16:40:54.582Z,16.79
2023-03-22T16:46:13.455Z,16.65
2023-03-22T16:51:32.721Z,16.52
2023-03-22T16:56:52.190Z,16.35
2023-03-22T17:02:11.305Z,16.27
2023-03-22T17:07:30.496Z,16.12
2023-03-22T17:12:49.993Z,16.04
2023-03-22T17:23:28.366Z,15.73
2023-03-22T17:28:47.164Z,15.76
2023-03-22T17:34:06.237Z,15.73
2023-03-22T17:39:48.236Z,15.71
2023-03-22T17:50:03.322Z,15.53
2023-03-22T17:55:29.960Z,15.42
2023-03-22T18:06:01.518Z,15.09
2023-03-22T18:11:20.945Z,15.04
2023-03-22T18:21:59.269Z,14.84
2023-03-22T18:27:18.463Z,14.6
2023-03-22T18:32:55.158Z,14.55
2023-03-22T18:37:56.610Z,14.5
2023-03-22T18:48:36.400Z,14.29
2023-03-22T18:53:53.887Z,14.08
2023-03-22T19:04:32.269Z,13.57
2023-03-22T19:09:51.658Z,13.27
2023-03-22T19:15:31.997Z,13.16
2023-03-22T19:20:39.703Z,13.04
2023-03-22T19:31:09.325Z,13.1
2023-03-22T19:36:28.546Z,13.19
2023-03-22T19:52:26.642Z,13.43
2023-03-22T19:57:46.110Z,13.43
2023-03-22T20:03:05.135Z,13.33
2023-03-22T20:08:24.152Z,13.23
2023-03-22T20:13:43.297Z,13.1
2023-03-22T20:19:02.829Z,13.19
2023-03-22T20:29:41.865Z,13.5
2023-03-22T20:35:01.376Z,13.46
2023-03-22T20:45:40.919Z,13.14
2023-03-22T20:51:00.119Z,13.04
2023-03-22T20:56:19.160Z,13.11
2023-03-22T21:01:38.090Z,13.2
2023-03-22T21:12:16.588Z,12.76
2023-03-22T21:17:35.574Z,12.49
2023-03-22T21:28:14.574Z,12.17
2023-03-22T21:33:33.949Z,12.28
2023-03-22T21:44:12.360Z,12.97
2023-03-22T21:49:31.213Z,12.85
2023-03-22T21:54:50.368Z,12.66
2023-03-22T22:00:09.425Z,12.79
2023-03-22T22:10:46.961Z,12.95
2023-03-22T22:16:05.917Z,13.03
2023-03-22T22:26:44.314Z,13.17
2023-03-22T22:32:03.764Z,13.28
2023-03-22T22:37:23.185Z,13.36
2023-03-22T22:43:07.865Z,13.47
2023-03-22T22:48:26.997Z,13.62
2023-03-22T22:53:46.672Z,13.65
2023-03-22T22:59:05.789Z,13.69
2023-03-22T23:04:25.230Z,13.65
2023-03-22T23:09:44.373Z,13.5
2023-03-22T23:15:03.154Z,13.27
2023-03-22T23:25:41.923Z,13.16
2023-03-22T23:36:20.952Z,13.62
2023-03-22T23:41:39.993Z,13.68
2023-03-22T23:46:58.603Z,13.75
2023-03-22T23:52:17.990Z,13.74
